sensor_id;sensor_type;location;lat;lon;timestamp;P1;durP1;ratioP1;P2;durP2;ratioP2
10191;SDS011;17580;50.850;4.504;2023-02-03T00:02:20;8.20;;;3.60;;
10191;SDS011;17580;50.850;4.504;2023-02-03T00:04:47;7.63;;;3.33;;
10191;SDS011;17580;50.850;4.504;2023-02-03T00:07:14;6.33;;;2.50;;
10191;SDS011;17580;50.850;4.504;2023-02-03T00:09:42;9.87;;;2.40;;
10191;SDS011;17580;50.850;4.504;2023-02-03T00:12:09;4.30;;;2.40;;
10191;SDS011;17580;50.850;4.504;2023-02-03T00:14:36;5.13;;;2.57;;
10191;SDS011;17580;50.850;4.504;2023-02-03T00:17:03;4.67;;;2.10;;
10191;SDS011;17580;50.850;4.504;2023-02-03T00:19:30;8.03;;;2.73;;
10191;SDS011;17580;50.850;4.504;2023-02-03T00:21:58;5.13;;;2.70;;
10191;SDS011;17580;50.850;4.504;2023-02-03T00:24:24;6.77;;;2.87;;
10191;SDS011;17580;50.850;4.504;2023-02-03T00:26:53;9.00;;;2.67;;
10191;SDS011;17580;50.850;4.504;2023-02-03T00:29:20;8.63;;;2.87;;
10191;SDS011;17580;50.850;4.504;2023-02-03T00:31:50;6.63;;;2.30;;
10191;SDS011;17580;50.850;4.504;2023-02-03T00:34:18;10.90;;;3.50;;
10191;SDS011;17580;50.850;4.504;2023-02-03T00:36:45;5.63;;;2.67;;
10191;SDS011;17580;50.850;4.504;2023-02-03T00:39:13;4.60;;;2.93;;
10191;SDS011;17580;50.850;4.504;2023-02-03T00:41:40;7.43;;;2.73;;
10191;SDS011;17580;50.850;4.504;2023-02-03T00:44:09;6.37;;;2.63;;
10191;SDS011;17580;50.850;4.504;2023-02-03T00:46:36;8.63;;;2.47;;
10191;SDS011;17580;50.850;4.504;2023-02-03T00:49:03;7.97;;;2.60;;
10191;SDS011;17580;50.850;4.504;2023-02-03T00:51:30;8.50;;;2.23;;
10191;SDS011;17580;50.850;4.504;2023-02-03T00:53:58;5.47;;;2.77;;
10191;SDS011;17580;50.850;4.504;2023-02-03T00:56:25;10.03;;;2.70;;
10191;SDS011;17580;50.850;4.504;2023-02-03T00:58:52;7.97;;;3.00;;
10191;SDS011;17580;50.850;4.504;2023-02-03T01:01:20;5.23;;;2.20;;
10191;SDS011;17580;50.850;4.504;2023-02-03T01:03:47;5.57;;;2.83;;
10191;SDS011;17580;50.850;4.504;2023-02-03T01:06:15;9.10;;;2.90;;
10191;SDS011;17580;50.850;4.504;2023-02-03T01:08:43;7.57;;;2.70;;
10191;SDS011;17580;50.850;4.504;2023-02-03T01:11:12;8.87;;;2.63;;
10191;SDS011;17580;50.850;4.504;2023-02-03T01:13:41;5.30;;;2.17;;
10191;SDS011;17580;50.850;4.504;2023-02-03T01:16:08;5.97;;;2.13;;
10191;SDS011;17580;50.850;4.504;2023-02-03T01:18:38;6.23;;;2.47;;
10191;SDS011;17580;50.850;4.504;2023-02-03T01:21:06;6.50;;;2.43;;
10191;SDS011;17580;50.850;4.504;2023-02-03T01:23:35;7.57;;;2.93;;
10191;SDS011;17580;50.850;4.504;2023-02-03T01:26:03;11.17;;;2.60;;
10191;SDS011;17580;50.850;4.504;2023-02-03T01:28:31;8.60;;;2.57;;
10191;SDS011;17580;50.850;4.504;2023-02-03T01:31:07;8.17;;;3.57;;
10191;SDS011;17580;50.850;4.504;2023-02-03T01:33:35;9.63;;;3.57;;
10191;SDS011;17580;50.850;4.504;2023-02-03T01:36:06;8.90;;;2.27;;
10191;SDS011;17580;50.850;4.504;2023-02-03T01:38:34;7.67;;;2.70;;
10191;SDS011;17580;50.850;4.504;2023-02-03T01:41:01;6.83;;;2.50;;
10191;SDS011;17580;50.850;4.504;2023-02-03T01:43:30;12.27;;;3.00;;
10191;SDS011;17580;50.850;4.504;2023-02-03T01:45:58;6.73;;;2.33;;
10191;SDS011;17580;50.850;4.504;2023-02-03T01:48:30;4.83;;;2.10;;
10191;SDS011;17580;50.850;4.504;2023-02-03T01:50:59;9.90;;;2.40;;
10191;SDS011;17580;50.850;4.504;2023-02-03T01:53:30;8.83;;;2.13;;
10191;SDS011;17580;50.850;4.504;2023-02-03T01:55:58;18.30;;;3.43;;
10191;SDS011;17580;50.850;4.504;2023-02-03T01:58:30;7.77;;;2.30;;
10191;SDS011;17580;50.850;4.504;2023-02-03T02:00:59;8.00;;;2.27;;
10191;SDS011;17580;50.850;4.504;2023-02-03T02:03:26;7.03;;;2.57;;
10191;SDS011;17580;50.850;4.504;2023-02-03T02:05:57;9.73;;;2.70;;
10191;SDS011;17580;50.850;4.504;2023-02-03T02:08:30;8.70;;;2.43;;
10191;SDS011;17580;50.850;4.504;2023-02-03T02:10:58;9.30;;;1.97;;
10191;SDS011;17580;50.850;4.504;2023-02-03T02:13:26;9.07;;;2.77;;
10191;SDS011;17580;50.850;4.504;2023-02-03T02:15:57;9.90;;;2.73;;
10191;SDS011;17580;50.850;4.504;2023-02-03T02:21:35;5.53;;;2.37;;
10191;SDS011;17580;50.850;4.504;2023-02-03T02:30:30;3.77;;;2.07;;
10191;SDS011;17580;50.850;4.504;2023-02-03T02:33:24;7.57;;;2.20;;
10191;SDS011;17580;50.850;4.504;2023-02-03T02:36:01;5.97;;;2.33;;
10191;SDS011;17580;50.850;4.504;2023-02-03T02:38:37;5.23;;;2.17;;
10191;SDS011;17580;50.850;4.504;2023-02-03T02:41:13;4.30;;;1.73;;
10191;SDS011;17580;50.850;4.504;2023-02-03T02:43:46;5.83;;;2.00;;
10191;SDS011;17580;50.850;4.504;2023-02-03T02:46:18;8.47;;;2.30;;
10191;SDS011;17580;50.850;4.504;2023-02-03T02:48:52;7.27;;;2.00;;
10191;SDS011;17580;50.850;4.504;2023-02-03T02:51:22;3.90;;;1.57;;
10191;SDS011;17580;50.850;4.504;2023-02-03T02:53:51;4.33;;;1.50;;
10191;SDS011;17580;50.850;4.504;2023-02-03T02:56:20;2.87;;;1.43;;
10191;SDS011;17580;50.850;4.504;2023-02-03T02:58:49;10.93;;;2.13;;
10191;SDS011;17580;50.850;4.504;2023-02-03T03:01:18;5.90;;;1.53;;
10191;SDS011;17580;50.850;4.504;2023-02-03T03:03:46;5.90;;;2.00;;
10191;SDS011;17580;50.850;4.504;2023-02-03T03:06:15;6.20;;;1.97;;
10191;SDS011;17580;50.850;4.504;2023-02-03T03:08:48;11.77;;;2.30;;
10191;SDS011;17580;50.850;4.504;2023-02-03T03:11:21;5.83;;;1.73;;
10191;SDS011;17580;50.850;4.504;2023-02-03T03:13:50;3.13;;;1.77;;
10191;SDS011;17580;50.850;4.504;2023-02-03T03:16:20;9.40;;;2.40;;
10191;SDS011;17580;50.850;4.504;2023-02-03T03:18:50;6.23;;;2.30;;
10191;SDS011;17580;50.850;4.504;2023-02-03T03:21:23;6.80;;;1.73;;
10191;SDS011;17580;50.850;4.504;2023-02-03T03:23:53;8.63;;;2.10;;
10191;SDS011;17580;50.850;4.504;2023-02-03T03:26:26;4.27;;;1.40;;
10191;SDS011;17580;50.850;4.504;2023-02-03T03:29:00;5.97;;;1.83;;
10191;SDS011;17580;50.850;4.504;2023-02-03T03:31:32;5.17;;;1.50;;
10191;SDS011;17580;50.850;4.504;2023-02-03T03:34:00;4.70;;;1.80;;
10191;SDS011;17580;50.850;4.504;2023-02-03T03:36:29;4.43;;;1.90;;
10191;SDS011;17580;50.850;4.504;2023-02-03T03:39:01;3.13;;;1.63;;
10191;SDS011;17580;50.850;4.504;2023-02-03T03:41:36;5.83;;;2.00;;
10191;SDS011;17580;50.850;4.504;2023-02-03T03:44:08;5.60;;;1.87;;
10191;SDS011;17580;50.850;4.504;2023-02-03T03:46:39;5.93;;;1.90;;
10191;SDS011;17580;50.850;4.504;2023-02-03T03:49:10;3.33;;;1.63;;
10191;SDS011;17580;50.850;4.504;2023-02-03T03:51:41;4.83;;;2.03;;
10191;SDS011;17580;50.850;4.504;2023-02-03T03:54:12;4.53;;;2.20;;
10191;SDS011;17580;50.850;4.504;2023-02-03T03:56:45;9.83;;;1.97;;
10191;SDS011;17580;50.850;4.504;2023-02-03T03:59:15;10.43;;;2.37;;
10191;SDS011;17580;50.850;4.504;2023-02-03T04:01:45;6.37;;;2.40;;
10191;SDS011;17580;50.850;4.504;2023-02-03T04:04:13;7.23;;;1.70;;
10191;SDS011;17580;50.850;4.504;2023-02-03T04:06:43;3.83;;;1.80;;
10191;SDS011;17580;50.850;4.504;2023-02-03T04:09:10;5.47;;;1.87;;
10191;SDS011;17580;50.850;4.504;2023-02-03T04:11:37;3.63;;;1.70;;
10191;SDS011;17580;50.850;4.504;2023-02-03T04:14:21;4.13;;;1.63;;
10191;SDS011;17580;50.850;4.504;2023-02-03T04:16:48;4.07;;;1.63;;
10191;SDS011;17580;50.850;4.504;2023-02-03T04:19:15;5.87;;;2.17;;
10191;SDS011;17580;50.850;4.504;2023-02-03T04:21:43;4.17;;;1.70;;
10191;SDS011;17580;50.850;4.504;2023-02-03T04:24:10;2.47;;;1.60;;
10191;SDS011;17580;50.850;4.504;2023-02-03T04:26:37;5.50;;;1.70;;
10191;SDS011;17580;50.850;4.504;2023-02-03T04:29:04;5.10;;;1.87;;
10191;SDS011;17580;50.850;4.504;2023-02-03T04:31:32;5.73;;;2.03;;
10191;SDS011;17580;50.850;4.504;2023-02-03T04:33:59;8.07;;;1.60;;
10191;SDS011;17580;50.850;4.504;2023-02-03T04:36:26;4.13;;;1.27;;
10191;SDS011;17580;50.850;4.504;2023-02-03T04:38:54;4.60;;;1.90;;
10191;SDS011;17580;50.850;4.504;2023-02-03T04:41:21;6.27;;;1.60;;
10191;SDS011;17580;50.850;4.504;2023-02-03T04:43:48;4.43;;;1.80;;
10191;SDS011;17580;50.850;4.504;2023-02-03T04:46:15;4.93;;;1.50;;
10191;SDS011;17580;50.850;4.504;2023-02-03T04:48:43;6.20;;;1.90;;
10191;SDS011;17580;50.850;4.504;2023-02-03T04:51:10;6.67;;;1.70;;
10191;SDS011;17580;50.850;4.504;2023-02-03T04:53:37;4.60;;;1.50;;
10191;SDS011;17580;50.850;4.504;2023-02-03T04:56:05;4.00;;;1.60;;
10191;SDS011;17580;50.850;4.504;2023-02-03T04:58:33;2.13;;;1.53;;
10191;SDS011;17580;50.850;4.504;2023-02-03T05:01:04;6.27;;;1.83;;
10191;SDS011;17580;50.850;4.504;2023-02-03T05:03:33;5.63;;;1.40;;
10191;SDS011;17580;50.850;4.504;2023-02-03T05:06:00;5.60;;;1.37;;
10191;SDS011;17580;50.850;4.504;2023-02-03T05:08:27;2.57;;;1.67;;
10191;SDS011;17580;50.850;4.504;2023-02-03T05:10:54;6.27;;;1.70;;
10191;SDS011;17580;50.850;4.504;2023-02-03T05:13:22;4.43;;;1.20;;
10191;SDS011;17580;50.850;4.504;2023-02-03T05:15:49;3.10;;;1.50;;
10191;SDS011;17580;50.850;4.504;2023-02-03T05:18:16;3.83;;;2.20;;
10191;SDS011;17580;50.850;4.504;2023-02-03T05:20:43;5.03;;;1.30;;
10191;SDS011;17580;50.850;4.504;2023-02-03T05:23:10;3.67;;;1.13;;
10191;SDS011;17580;50.850;4.504;2023-02-03T05:25:37;7.80;;;1.57;;
10191;SDS011;17580;50.850;4.504;2023-02-03T05:28:04;4.03;;;1.23;;
10191;SDS011;17580;50.850;4.504;2023-02-03T05:30:33;6.30;;;1.63;;
10191;SDS011;17580;50.850;4.504;2023-02-03T05:33:00;2.63;;;1.33;;
10191;SDS011;17580;50.850;4.504;2023-02-03T05:35:27;3.00;;;1.83;;
10191;SDS011;17580;50.850;4.504;2023-02-03T05:37:53;7.03;;;1.40;;
10191;SDS011;17580;50.850;4.504;2023-02-03T05:40:20;3.90;;;1.67;;
10191;SDS011;17580;50.850;4.504;2023-02-03T05:43:05;2.20;;;1.23;;
10191;SDS011;17580;50.850;4.504;2023-02-03T05:45:33;8.20;;;1.97;;
10191;SDS011;17580;50.850;4.504;2023-02-03T05:48:01;4.10;;;1.50;;
10191;SDS011;17580;50.850;4.504;2023-02-03T05:50:28;4.87;;;1.63;;
10191;SDS011;17580;50.850;4.504;2023-02-03T05:52:57;4.50;;;1.50;;
10191;SDS011;17580;50.850;4.504;2023-02-03T05:55:25;2.73;;;1.47;;
10191;SDS011;17580;50.850;4.504;2023-02-03T05:57:52;4.50;;;1.57;;
10191;SDS011;17580;50.850;4.504;2023-02-03T06:00:20;3.57;;;1.30;;
10191;SDS011;17580;50.850;4.504;2023-02-03T06:02:51;3.33;;;1.40;;
10191;SDS011;17580;50.850;4.504;2023-02-03T06:05:18;3.17;;;1.83;;
10191;SDS011;17580;50.850;4.504;2023-02-03T06:07:45;3.70;;;1.87;;
10191;SDS011;17580;50.850;4.504;2023-02-03T06:10:12;3.27;;;1.77;;
10191;SDS011;17580;50.850;4.504;2023-02-03T06:12:39;2.80;;;1.40;;
10191;SDS011;17580;50.850;4.504;2023-02-03T06:15:07;1.70;;;1.33;;
10191;SDS011;17580;50.850;4.504;2023-02-03T06:17:35;3.17;;;1.60;;
10191;SDS011;17580;50.850;4.504;2023-02-03T06:20:03;3.60;;;1.17;;
10191;SDS011;17580;50.850;4.504;2023-02-03T06:22:31;2.97;;;1.27;;
10191;SDS011;17580;50.850;4.504;2023-02-03T06:24:58;3.43;;;1.57;;
10191;SDS011;17580;50.850;4.504;2023-02-03T06:27:25;4.37;;;1.57;;
10191;SDS011;17580;50.850;4.504;2023-02-03T06:29:52;1.77;;;1.30;;
10191;SDS011;17580;50.850;4.504;2023-02-03T06:32:19;5.17;;;1.50;;
10191;SDS011;17580;50.850;4.504;2023-02-03T06:34:46;4.13;;;1.30;;
10191;SDS011;17580;50.850;4.504;2023-02-03T06:37:15;2.87;;;1.90;;
10191;SDS011;17580;50.850;4.504;2023-02-03T06:39:42;2.77;;;1.50;;
10191;SDS011;17580;50.850;4.504;2023-02-03T06:42:08;4.73;;;1.70;;
10191;SDS011;17580;50.850;4.504;2023-02-03T06:44:35;2.43;;;1.10;;
10191;SDS011;17580;50.850;4.504;2023-02-03T06:47:02;7.53;;;2.00;;
10191;SDS011;17580;50.850;4.504;2023-02-03T06:49:29;6.70;;;1.73;;
10191;SDS011;17580;50.850;4.504;2023-02-03T06:51:56;4.40;;;1.70;;
10191;SDS011;17580;50.850;4.504;2023-02-03T06:54:25;4.77;;;1.90;;
10191;SDS011;17580;50.850;4.504;2023-02-03T06:56:52;3.30;;;1.33;;
10191;SDS011;17580;50.850;4.504;2023-02-03T06:59:19;1.43;;;1.33;;
10191;SDS011;17580;50.850;4.504;2023-02-03T07:01:46;2.27;;;1.27;;
10191;SDS011;17580;50.850;4.504;2023-02-03T07:04:13;2.20;;;1.20;;
10191;SDS011;17580;50.850;4.504;2023-02-03T07:06:40;3.47;;;1.10;;
10191;SDS011;17580;50.850;4.504;2023-02-03T07:09:07;3.40;;;1.47;;
10191;SDS011;17580;50.850;4.504;2023-02-03T07:11:35;4.23;;;1.20;;
10191;SDS011;17580;50.850;4.504;2023-02-03T07:14:02;3.37;;;1.47;;
10191;SDS011;17580;50.850;4.504;2023-02-03T07:16:29;2.47;;;1.60;;
10191;SDS011;17580;50.850;4.504;2023-02-03T07:18:58;6.03;;;1.70;;
10191;SDS011;17580;50.850;4.504;2023-02-03T07:21:25;5.80;;;1.73;;
10191;SDS011;17580;50.850;4.504;2023-02-03T07:23:52;3.13;;;1.47;;
10191;SDS011;17580;50.850;4.504;2023-02-03T07:26:19;6.20;;;1.83;;
10191;SDS011;17580;50.850;4.504;2023-02-03T07:28:48;6.87;;;1.97;;
10191;SDS011;17580;50.850;4.504;2023-02-03T07:31:16;2.90;;;1.67;;
10191;SDS011;17580;50.850;4.504;2023-02-03T07:33:43;6.80;;;2.10;;
10191;SDS011;17580;50.850;4.504;2023-02-03T07:36:10;4.77;;;1.87;;
10191;SDS011;17580;50.850;4.504;2023-02-03T07:38:37;2.43;;;1.27;;
10191;SDS011;17580;50.850;4.504;2023-02-03T07:41:05;4.47;;;1.53;;
10191;SDS011;17580;50.850;4.504;2023-02-03T07:43:32;4.97;;;1.70;;
10191;SDS011;17580;50.850;4.504;2023-02-03T07:46:00;4.10;;;1.63;;
10191;SDS011;17580;50.850;4.504;2023-02-03T07:48:27;4.03;;;1.40;;
10191;SDS011;17580;50.850;4.504;2023-02-03T07:50:54;5.67;;;1.80;;
10191;SDS011;17580;50.850;4.504;2023-02-03T07:53:21;3.47;;;1.57;;
10191;SDS011;17580;50.850;4.504;2023-02-03T07:55:49;7.03;;;2.10;;
10191;SDS011;17580;50.850;4.504;2023-02-03T07:58:16;5.50;;;1.80;;
10191;SDS011;17580;50.850;4.504;2023-02-03T08:00:42;3.70;;;1.57;;
10191;SDS011;17580;50.850;4.504;2023-02-03T08:03:11;4.83;;;1.40;;
10191;SDS011;17580;50.850;4.504;2023-02-03T08:05:38;5.80;;;1.70;;
10191;SDS011;17580;50.850;4.504;2023-02-03T08:08:05;7.50;;;2.33;;
10191;SDS011;17580;50.850;4.504;2023-02-03T08:10:32;7.03;;;1.97;;
10191;SDS011;17580;50.850;4.504;2023-02-03T08:12:59;8.90;;;1.93;;
10191;SDS011;17580;50.850;4.504;2023-02-03T08:15:26;2.50;;;1.47;;
10191;SDS011;17580;50.850;4.504;2023-02-03T08:17:53;4.37;;;1.73;;
10191;SDS011;17580;50.850;4.504;2023-02-03T08:20:21;7.10;;;2.00;;
10191;SDS011;17580;50.850;4.504;2023-02-03T08:22:48;4.77;;;1.80;;
10191;SDS011;17580;50.850;4.504;2023-02-03T08:25:15;4.10;;;1.70;;
10191;SDS011;17580;50.850;4.504;2023-02-03T08:27:42;3.60;;;1.80;;
10191;SDS011;17580;50.850;4.504;2023-02-03T08:30:11;2.27;;;1.57;;
10191;SDS011;17580;50.850;4.504;2023-02-03T08:32:39;5.67;;;1.50;;
10191;SDS011;17580;50.850;4.504;2023-02-03T08:35:06;6.13;;;1.63;;
10191;SDS011;17580;50.850;4.504;2023-02-03T08:37:35;2.70;;;1.67;;
10191;SDS011;17580;50.850;4.504;2023-02-03T08:40:02;3.33;;;1.73;;
10191;SDS011;17580;50.850;4.504;2023-02-03T08:42:30;2.97;;;1.43;;
10191;SDS011;17580;50.850;4.504;2023-02-03T08:44:57;3.67;;;1.60;;
10191;SDS011;17580;50.850;4.504;2023-02-03T08:47:24;4.17;;;1.70;;
10191;SDS011;17580;50.850;4.504;2023-02-03T08:49:52;4.97;;;1.70;;
10191;SDS011;17580;50.850;4.504;2023-02-03T08:52:18;4.70;;;1.83;;
10191;SDS011;17580;50.850;4.504;2023-02-03T08:54:47;2.87;;;1.40;;
10191;SDS011;17580;50.850;4.504;2023-02-03T08:57:14;3.77;;;1.83;;
10191;SDS011;17580;50.850;4.504;2023-02-03T08:59:43;4.20;;;1.50;;
10191;SDS011;17580;50.850;4.504;2023-02-03T09:02:13;3.73;;;1.60;;
10191;SDS011;17580;50.850;4.504;2023-02-03T09:04:42;1.90;;;1.80;;
10191;SDS011;17580;50.850;4.504;2023-02-03T09:07:09;9.13;;;1.83;;
10191;SDS011;17580;50.850;4.504;2023-02-03T09:09:37;3.93;;;1.70;;
10191;SDS011;17580;50.850;4.504;2023-02-03T09:12:06;3.60;;;1.57;;
10191;SDS011;17580;50.850;4.504;2023-02-03T09:14:34;2.10;;;1.57;;
10191;SDS011;17580;50.850;4.504;2023-02-03T09:17:02;2.97;;;1.63;;
10191;SDS011;17580;50.850;4.504;2023-02-03T09:19:31;4.63;;;1.50;;
10191;SDS011;17580;50.850;4.504;2023-02-03T09:21:58;6.50;;;1.87;;
10191;SDS011;17580;50.850;4.504;2023-02-03T09:24:25;6.13;;;2.17;;
10191;SDS011;17580;50.850;4.504;2023-02-03T09:26:52;9.03;;;1.90;;
10191;SDS011;17580;50.850;4.504;2023-02-03T09:29:21;6.13;;;1.90;;
10191;SDS011;17580;50.850;4.504;2023-02-03T09:31:48;5.33;;;1.73;;
10191;SDS011;17580;50.850;4.504;2023-02-03T09:34:17;2.93;;;1.57;;
10191;SDS011;17580;50.850;4.504;2023-02-03T09:36:44;4.77;;;1.40;;
10191;SDS011;17580;50.850;4.504;2023-02-03T09:39:12;2.17;;;1.30;;
10191;SDS011;17580;50.850;4.504;2023-02-03T09:41:43;5.20;;;1.57;;
10191;SDS011;17580;50.850;4.504;2023-02-03T09:44:41;2.87;;;1.80;;
10191;SDS011;17580;50.850;4.504;2023-02-03T09:47:14;4.67;;;1.57;;
10191;SDS011;17580;50.850;4.504;2023-02-03T09:49:44;5.73;;;1.70;;
10191;SDS011;17580;50.850;4.504;2023-02-03T09:52:16;4.03;;;1.77;;
10191;SDS011;17580;50.850;4.504;2023-02-03T09:54:46;4.87;;;1.80;;
10191;SDS011;17580;50.850;4.504;2023-02-03T09:57:21;3.53;;;2.00;;
10191;SDS011;17580;50.850;4.504;2023-02-03T09:59:51;3.07;;;1.80;;
10191;SDS011;17580;50.850;4.504;2023-02-03T10:02:24;3.27;;;1.60;;
10191;SDS011;17580;50.850;4.504;2023-02-03T10:05:06;6.90;;;1.97;;
10191;SDS011;17580;50.850;4.504;2023-02-03T10:07:44;5.73;;;1.87;;
10191;SDS011;17580;50.850;4.504;2023-02-03T10:10:21;4.87;;;1.80;;
10191;SDS011;17580;50.850;4.504;2023-02-03T10:13:07;3.40;;;1.60;;
10191;SDS011;17580;50.850;4.504;2023-02-03T10:15:54;2.07;;;1.87;;
10191;SDS011;17580;50.850;4.504;2023-02-03T10:18:39;5.70;;;1.67;;
10191;SDS011;17580;50.850;4.504;2023-02-03T10:21:13;4.40;;;2.13;;
10191;SDS011;17580;50.850;4.504;2023-02-03T10:23:44;3.53;;;1.80;;
10191;SDS011;17580;50.850;4.504;2023-02-03T10:26:13;6.20;;;2.03;;
10191;SDS011;17580;50.850;4.504;2023-02-03T10:28:45;4.80;;;1.97;;
10191;SDS011;17580;50.850;4.504;2023-02-03T10:31:21;3.23;;;1.77;;
10191;SDS011;17580;50.850;4.504;2023-02-03T10:33:54;3.70;;;2.10;;
10191;SDS011;17580;50.850;4.504;2023-02-03T10:36:28;5.03;;;2.17;;
10191;SDS011;17580;50.850;4.504;2023-02-03T10:39:02;4.27;;;2.33;;
10191;SDS011;17580;50.850;4.504;2023-02-03T10:41:37;2.80;;;1.80;;
10191;SDS011;17580;50.850;4.504;2023-02-03T10:44:05;4.30;;;1.80;;
10191;SDS011;17580;50.850;4.504;2023-02-03T10:46:36;3.57;;;2.17;;
10191;SDS011;17580;50.850;4.504;2023-02-03T10:49:06;6.27;;;2.53;;
10191;SDS011;17580;50.850;4.504;2023-02-03T10:51:35;4.83;;;2.27;;
10191;SDS011;17580;50.850;4.504;2023-02-03T10:54:03;8.73;;;2.70;;
10191;SDS011;17580;50.850;4.504;2023-02-03T10:56:51;4.27;;;2.00;;
10191;SDS011;17580;50.850;4.504;2023-02-03T10:59:24;5.10;;;2.50;;
10191;SDS011;17580;50.850;4.504;2023-02-03T11:01:56;9.13;;;2.83;;
10191;SDS011;17580;50.850;4.504;2023-02-03T11:04:24;4.93;;;1.90;;
10191;SDS011;17580;50.850;4.504;2023-02-03T11:06:53;4.43;;;2.00;;
10191;SDS011;17580;50.850;4.504;2023-02-03T11:09:22;2.37;;;2.00;;
10191;SDS011;17580;50.850;4.504;2023-02-03T11:12:06;4.80;;;2.50;;
10191;SDS011;17580;50.850;4.504;2023-02-03T11:14:37;5.50;;;2.10;;
10191;SDS011;17580;50.850;4.504;2023-02-03T11:17:15;5.90;;;3.30;;
10191;SDS011;17580;50.850;4.504;2023-02-03T11:19:43;4.13;;;2.87;;
10191;SDS011;17580;50.850;4.504;2023-02-03T11:22:12;4.50;;;2.43;;
10191;SDS011;17580;50.850;4.504;2023-02-03T11:24:51;3.83;;;2.10;;
10191;SDS011;17580;50.850;4.504;2023-02-03T11:27:18;4.50;;;2.50;;
10191;SDS011;17580;50.850;4.504;2023-02-03T11:29:49;3.83;;;2.07;;
10191;SDS011;17580;50.850;4.504;2023-02-03T11:32:21;2.70;;;1.90;;
10191;SDS011;17580;50.850;4.504;2023-02-03T11:34:53;4.17;;;2.13;;
10191;SDS011;17580;50.850;4.504;2023-02-03T11:37:24;4.77;;;2.30;;
10191;SDS011;17580;50.850;4.504;2023-02-03T11:39:54;4.50;;;2.20;;
10191;SDS011;17580;50.850;4.504;2023-02-03T11:42:22;2.10;;;2.00;;
10191;SDS011;17580;50.850;4.504;2023-02-03T11:44:50;1.90;;;1.77;;
10191;SDS011;17580;50.850;4.504;2023-02-03T11:47:16;8.33;;;2.53;;
10191;SDS011;17580;50.850;4.504;2023-02-03T11:50:04;2.27;;;1.97;;
10191;SDS011;17580;50.850;4.504;2023-02-03T11:52:49;3.00;;;2.40;;
10191;SDS011;17580;50.850;4.504;2023-02-03T11:55:36;3.93;;;2.90;;
10191;SDS011;17580;50.850;4.504;2023-02-03T11:58:15;4.80;;;2.43;;
10191;SDS011;17580;50.850;4.504;2023-02-03T12:01:03;5.57;;;2.47;;
10191;SDS011;17580;50.850;4.504;2023-02-03T12:03:43;3.57;;;2.07;;
10191;SDS011;17580;50.850;4.504;2023-02-03T12:06:41;2.93;;;1.90;;
10191;SDS011;17580;50.850;4.504;2023-02-03T12:09:31;4.60;;;2.00;;
10191;SDS011;17580;50.850;4.504;2023-02-03T12:12:14;5.60;;;2.30;;
10191;SDS011;17580;50.850;4.504;2023-02-03T12:14:57;3.73;;;2.13;;
10191;SDS011;17580;50.850;4.504;2023-02-03T12:17:49;2.10;;;1.87;;
10191;SDS011;17580;50.850;4.504;2023-02-03T12:20:32;4.53;;;2.30;;
10191;SDS011;17580;50.850;4.504;2023-02-03T12:23:10;5.57;;;2.20;;
10191;SDS011;17580;50.850;4.504;2023-02-03T12:25:49;4.00;;;1.90;;
10191;SDS011;17580;50.850;4.504;2023-02-03T12:28:29;4.37;;;2.43;;
10191;SDS011;17580;50.850;4.504;2023-02-03T12:31:20;4.33;;;2.57;;
10191;SDS011;17580;50.850;4.504;2023-02-03T12:33:56;2.53;;;2.23;;
10191;SDS011;17580;50.850;4.504;2023-02-03T12:36:29;4.67;;;2.33;;
10191;SDS011;17580;50.850;4.504;2023-02-03T12:39:05;4.73;;;2.30;;
10191;SDS011;17580;50.850;4.504;2023-02-03T12:41:38;3.30;;;2.33;;
10191;SDS011;17580;50.850;4.504;2023-02-03T12:44:14;6.33;;;2.20;;
10191;SDS011;17580;50.850;4.504;2023-02-03T12:46:48;3.80;;;2.20;;
10191;SDS011;17580;50.850;4.504;2023-02-03T12:49:24;2.80;;;2.10;;
10191;SDS011;17580;50.850;4.504;2023-02-03T12:51:56;6.90;;;2.20;;
10191;SDS011;17580;50.850;4.504;2023-02-03T12:54:32;6.00;;;2.43;;
10191;SDS011;17580;50.850;4.504;2023-02-03T12:57:09;3.83;;;2.27;;
10191;SDS011;17580;50.850;4.504;2023-02-03T12:59:42;7.03;;;2.67;;
10191;SDS011;17580;50.850;4.504;2023-02-03T13:02:15;3.77;;;2.13;;
10191;SDS011;17580;50.850;4.504;2023-02-03T13:04:48;4.07;;;1.90;;
10191;SDS011;17580;50.850;4.504;2023-02-03T13:07:20;5.37;;;2.70;;
10191;SDS011;17580;50.850;4.504;2023-02-03T13:09:54;6.83;;;2.43;;
10191;SDS011;17580;50.850;4.504;2023-02-03T13:12:26;4.53;;;2.37;;
10191;SDS011;17580;50.850;4.504;2023-02-03T13:14:56;6.20;;;2.70;;
10191;SDS011;17580;50.850;4.504;2023-02-03T13:17:30;3.60;;;2.40;;
10191;SDS011;17580;50.850;4.504;2023-02-03T13:20:10;5.17;;;2.27;;
10191;SDS011;17580;50.850;4.504;2023-02-03T13:22:44;2.30;;;2.10;;
10191;SDS011;17580;50.850;4.504;2023-02-03T13:25:16;3.90;;;1.87;;
10191;SDS011;17580;50.850;4.504;2023-02-03T13:27:48;3.27;;;2.20;;
10191;SDS011;17580;50.850;4.504;2023-02-03T13:30:36;2.27;;;2.07;;
10191;SDS011;17580;50.850;4.504;2023-02-03T13:33:19;6.63;;;2.93;;
10191;SDS011;17580;50.850;4.504;2023-02-03T13:36:08;7.03;;;2.30;;
10191;SDS011;17580;50.850;4.504;2023-02-03T13:39:09;4.53;;;2.00;;
10191;SDS011;17580;50.850;4.504;2023-02-03T13:41:56;5.00;;;2.70;;
10191;SDS011;17580;50.850;4.504;2023-02-03T13:44:39;2.93;;;2.33;;
10191;SDS011;17580;50.850;4.504;2023-02-03T13:47:12;2.97;;;2.10;;
10191;SDS011;17580;50.850;4.504;2023-02-03T13:49:42;2.73;;;2.40;;
10191;SDS011;17580;50.850;4.504;2023-02-03T13:52:24;2.83;;;2.03;;
10191;SDS011;17580;50.850;4.504;2023-02-03T13:54:54;2.47;;;2.10;;
10191;SDS011;17580;50.850;4.504;2023-02-03T13:57:25;6.67;;;2.40;;
10191;SDS011;17580;50.850;4.504;2023-02-03T13:59:58;4.50;;;2.67;;
10191;SDS011;17580;50.850;4.504;2023-02-03T14:05:38;4.97;;;2.97;;
10191;SDS011;17580;50.850;4.504;2023-02-03T14:23:40;3.97;;;2.27;;
10191;SDS011;17580;50.850;4.504;2023-02-03T14:26:14;2.23;;;2.13;;
10191;SDS011;17580;50.850;4.504;2023-02-03T14:28:49;4.77;;;2.73;;
10191;SDS011;17580;50.850;4.504;2023-02-03T14:31:19;2.00;;;1.90;;
10191;SDS011;17580;50.850;4.504;2023-02-03T14:33:57;7.50;;;2.57;;
10191;SDS011;17580;50.850;4.504;2023-02-03T14:36:41;7.40;;;2.67;;
10191;SDS011;17580;50.850;4.504;2023-02-03T14:42:30;2.77;;;2.13;;
10191;SDS011;17580;50.850;4.504;2023-02-03T14:45:30;4.27;;;2.23;;
10191;SDS011;17580;50.850;4.504;2023-02-03T14:48:26;2.73;;;2.00;;
10191;SDS011;17580;50.850;4.504;2023-02-03T14:51:06;1.97;;;1.80;;
10191;SDS011;17580;50.850;4.504;2023-02-03T14:53:50;2.23;;;1.63;;
10191;SDS011;17580;50.850;4.504;2023-02-03T14:56:30;3.77;;;2.17;;
10191;SDS011;17580;50.850;4.504;2023-02-03T14:59:19;3.33;;;1.73;;
10191;SDS011;17580;50.850;4.504;2023-02-03T15:02:10;2.23;;;1.70;;
10191;SDS011;17580;50.850;4.504;2023-02-03T15:04:44;3.07;;;1.80;;
10191;SDS011;17580;50.850;4.504;2023-02-03T15:07:32;3.00;;;1.80;;
10191;SDS011;17580;50.850;4.504;2023-02-03T15:10:01;3.03;;;1.50;;
10191;SDS011;17580;50.850;4.504;2023-02-03T15:12:33;2.77;;;1.70;;
10191;SDS011;17580;50.850;4.504;2023-02-03T15:15:12;6.10;;;2.00;;
10191;SDS011;17580;50.850;4.504;2023-02-03T15:17:44;3.03;;;2.10;;
10191;SDS011;17580;50.850;4.504;2023-02-03T15:20:20;2.10;;;1.83;;
10191;SDS011;17580;50.850;4.504;2023-02-03T15:23:00;3.17;;;1.70;;
10191;SDS011;17580;50.850;4.504;2023-02-03T15:25:27;2.17;;;1.90;;
10191;SDS011;17580;50.850;4.504;2023-02-03T15:28:09;1.93;;;1.70;;
10191;SDS011;17580;50.850;4.504;2023-02-03T15:30:37;1.70;;;1.60;;
10191;SDS011;17580;50.850;4.504;2023-02-03T15:33:06;2.20;;;2.00;;
10191;SDS011;17580;50.850;4.504;2023-02-03T15:35:40;2.20;;;2.00;;
10191;SDS011;17580;50.850;4.504;2023-02-03T15:38:11;1.50;;;1.40;;
10191;SDS011;17580;50.850;4.504;2023-02-03T15:40:41;2.97;;;1.90;;
10191;SDS011;17580;50.850;4.504;2023-02-03T15:43:12;3.10;;;2.13;;
10191;SDS011;17580;50.850;4.504;2023-02-03T15:45:43;1.97;;;1.87;;